Terminal Aerodrome Forecast
Issued by NWS Sterling, VA

Home | Current Version | Previous Version | Text Only | Print | Product List | Glossary On
Versions: 1 2 3 4 5 6 7 8 9 10 11 12 13 14 15 16 17 18 19 20 21 22 23 24
000
FTUS41 KLWX 181734
TAFDCA
TAF
KDCA 181734Z 1818/1924 VRB03KT P6SM SCT050 BKN250
     FM190100 VRB03KT P6SM BKN050
     FM191300 24005KT P6SM SCT040
     FM191600 24008KT P6SM SCT250
     FM191800 23012KT P6SM SCT250=

USA.gov is the U.S. government's official web portal to all federal, state and local government web resources and services.